Time;durP1;ratioP1;P1;durP2;ratioP2;P2;SDS_P1;SDS_P2;PMS_P1;PMS_P2;Temp;Humidity;BMP_temperature;BMP_pressure;BME280_temperature;BME280_humidity;BME280_pressure;Samples;Min_cycle;Max_cycle;Signal;HPM_P1;HPM_P2
2021/12/29 00:01:33;;;;;;;20.30;11.10;;;;;;;0.19;100.00;99498.41;1766860;81;21259;-78
2021/12/29 00:04:38;;;;;;;15.75;10.13;;;;;;;0.27;100.00;99492.36;1766951;81;21215;-78
2021/12/29 00:07:43;;;;;;;18.82;11.93;;;;;;;0.31;100.00;99499.19;1766927;81;21342;-78
2021/12/29 00:10:55;;;;;;;16.75;10.90;;;;;;;0.29;100.00;99498.48;1766899;81;21141;-78
2021/12/29 00:13:58;;;;;;;16.10;10.25;;;;;;;0.23;100.00;99499.33;1766975;81;21702;-78
2021/12/29 00:17:04;;;;;;;15.75;11.15;;;;;;;0.25;100.00;99505.45;1766900;81;21303;-78
2021/12/29 00:20:10;;;;;;;20.35;11.55;;;;;;;0.28;100.00;99509.70;1767003;81;21125;-78
2021/12/29 00:23:17;;;;;;;27.52;14.98;;;;;;;0.29;100.00;99514.62;1766870;81;21180;-78
2021/12/29 00:26:22;;;;;;;36.00;18.57;;;;;;;0.25;100.00;99512.17;1766830;81;21310;-78
2021/12/29 00:29:28;;;;;;;39.45;20.90;;;;;;;0.21;100.00;99505.34;1766863;81;21670;-78
2021/12/29 00:32:53;;;;;;;44.25;21.50;;;;;;;0.12;100.00;99505.27;1765385;81;21184;-78
2021/12/29 00:36:17;;;;;;;36.65;18.52;;;;;;;0.05;100.00;99500.03;1766472;81;21263;-78
2021/12/29 00:39:33;;;;;;;33.48;17.52;;;;;;;-0.02;100.00;99501.91;1762383;81;21304;-78
2021/12/29 00:42:56;;;;;;;31.80;17.10;;;;;;;-0.07;100.00;99514.03;1765214;81;21690;-78
2021/12/29 00:46:19;;;;;;;38.00;17.12;;;;;;;-0.10;100.00;99510.24;1766869;81;21255;-78
2021/12/29 00:49:37;;;;;;;35.98;19.30;;;;;;;-0.18;100.00;99515.42;1766485;81;21263;-78
2021/12/29 00:52:48;;;;;;;40.58;17.52;;;;;;;-0.16;100.00;99521.52;1766057;81;21224;-78
2021/12/29 00:55:51;;;;;;;34.88;17.55;;;;;;;-0.16;100.00;99514.80;1765453;81;21821;-78
2021/12/29 00:58:57;;;;;;;42.48;19.70;;;;;;;-0.18;100.00;99518.97;1765307;81;21157;-78
2021/12/29 01:02:02;;;;;;;31.77;16.15;;;;;;;-0.20;100.00;99524.09;1765178;81;21325;-78
2021/12/29 01:05:08;;;;;;;25.12;13.30;;;;;;;-0.22;100.00;99522.03;1766536;81;21160;-78
2021/12/29 01:08:13;;;;;;;29.75;15.10;;;;;;;-0.28;100.00;99527.44;1766899;81;21303;-78
2021/12/29 01:11:18;;;;;;;37.15;16.60;;;;;;;-0.40;100.00;99522.56;1766721;81;21252;-78
2021/12/29 01:14:24;;;;;;;28.23;14.68;;;;;;;-0.48;100.00;99528.19;1767322;81;21877;-79
2021/12/29 01:17:31;;;;;;;28.20;11.97;;;;;;;-0.51;100.00;99529.31;1766929;81;21719;-78
2021/12/29 01:20:36;;;;;;;29.35;14.10;;;;;;;-0.59;100.00;99527.73;1766597;81;21942;-79
2021/12/29 01:23:41;;;;;;;21.12;12.03;;;;;;;-0.64;100.00;99532.12;1766541;81;21291;-79
2021/12/29 01:26:46;;;;;;;18.37;10.68;;;;;;;-0.62;100.00;99534.19;1766756;81;21291;-79
2021/12/29 01:29:53;;;;;;;16.12;9.48;;;;;;;-0.62;100.00;99541.40;1766806;81;21817;-79
2021/12/29 01:33:00;;;;;;;14.75;9.73;;;;;;;-0.65;100.00;99535.80;1764947;81;21833;-79
2021/12/29 01:36:06;;;;;;;15.90;9.43;;;;;;;-0.65;100.00;99533.12;1765014;81;21156;-79
2021/12/29 01:39:14;;;;;;;17.02;11.10;;;;;;;-0.68;100.00;99539.22;1771650;81;21258;-80
2021/12/29 01:42:21;;;;;;;19.07;11.97;;;;;;;-0.71;100.00;99548.36;1771916;81;21188;-80
2021/12/29 01:45:25;;;;;;;18.50;10.75;;;;;;;-0.77;100.00;99553.73;1771423;81;21987;-79
2021/12/29 01:48:30;;;;;;;21.97;12.37;;;;;;;-0.80;100.00;99560.72;1771697;81;21287;-81
2021/12/29 01:51:37;;;;;;;22.10;12.47;;;;;;;-0.87;100.00;99548.74;1771708;81;21338;-80
2021/12/29 01:54:43;;;;;;;23.80;13.10;;;;;;;-0.94;100.00;99554.25;1771545;81;21829;-80
2021/12/29 01:57:49;;;;;;;25.77;14.63;;;;;;;-1.08;100.00;99556.68;1770754;81;21668;-80
2021/12/29 02:00:55;;;;;;;27.93;15.05;;;;;;;-1.19;100.00;99551.28;1771643;81;21153;-81
2021/12/29 02:04:01;;;;;;;23.70;13.08;;;;;;;-1.29;100.00;99555.17;1769986;81;21869;-80
2021/12/29 02:07:07;;;;;;;19.07;12.10;;;;;;;-1.36;100.00;99563.34;1769969;81;21788;-82
2021/12/29 02:10:14;;;;;;;29.95;13.60;;;;;;;-1.44;100.00;99546.98;1771582;81;21137;-82
2021/12/29 02:13:20;;;;;;;23.55;12.47;;;;;;;-1.45;100.00;99553.33;1771893;80;21193;-81
2021/12/29 02:16:25;;;;;;;19.23;11.78;;;;;;;-1.48;100.00;99554.89;1771580;81;21251;-81
2021/12/29 02:19:31;;;;;;;21.30;11.00;;;;;;;-1.48;100.00;99555.38;1771653;81;21266;-81
2021/12/29 02:22:43;;;;;;;22.17;12.35;;;;;;;-1.45;100.00;99552.48;1771600;81;21319;-82
2021/12/29 02:25:48;;;;;;;20.85;11.95;;;;;;;-1.49;100.00;99553.19;1752896;81;21283;-82
2021/12/29 02:28:55;;;;;;;20.97;12.50;;;;;;;-1.56;100.00;99555.97;1771601;81;21295;-81
2021/12/29 02:32:00;;;;;;;28.35;14.93;;;;;;;-1.58;100.00;99557.43;1771704;81;21891;-82
2021/12/29 02:35:05;;;;;;;30.57;15.88;;;;;;;-1.64;100.00;99561.08;1771627;81;21263;-81
2021/12/29 02:38:12;;;;;;;30.37;14.28;;;;;;;-1.63;100.00;99558.77;1769803;81;21187;-81
2021/12/29 02:41:18;;;;;;;31.40;14.85;;;;;;;-1.68;100.00;99555.09;1771711;81;21302;-81
2021/12/29 02:44:29;;;;;;;25.85;13.85;;;;;;;-1.72;100.00;99560.31;1771674;80;21291;-81
2021/12/29 02:47:30;;;;;;;22.07;12.03;;;;;;;-1.78;100.00;99569.32;1771244;81;21287;-81
2021/12/29 02:50:35;;;;;;;28.75;13.85;;;;;;;-1.84;100.00;99564.77;1771744;81;21267;-81
2021/12/29 02:53:40;;;;;;;21.48;13.05;;;;;;;-1.85;100.00;99561.72;1771650;81;21291;-82
2021/12/29 02:56:48;;;;;;;26.42;13.72;;;;;;;-1.81;100.00;99571.24;1771763;81;21248;-81
2021/12/29 02:59:54;;;;;;;27.20;14.63;;;;;;;-1.78;100.00;99580.90;1771481;81;21302;-81
2021/12/29 03:02:59;;;;;;;28.17;12.98;;;;;;;-1.77;100.00;99579.06;1771526;81;21211;-82
2021/12/29 03:06:03;;;;;;;25.30;13.80;;;;;;;-1.78;100.00;99578.22;1771599;81;21148;-81
2021/12/29 03:09:11;;;;;;;21.50;12.05;;;;;;;-1.84;100.00;99584.88;1771706;81;21698;-81
2021/12/29 03:12:17;;;;;;;19.52;11.08;;;;;;;-1.88;100.00;99595.48;1771698;81;21224;-81
2021/12/29 03:15:22;;;;;;;19.60;10.55;;;;;;;-1.94;100.00;99589.22;1771773;81;21753;-81
2021/12/29 03:18:28;;;;;;;15.65;10.53;;;;;;;-1.93;100.00;99594.97;1771654;81;21208;-82
2021/12/29 03:21:33;;;;;;;19.23;10.78;;;;;;;-1.95;100.00;99600.91;1771725;81;21259;-81
2021/12/29 03:24:38;;;;;;;14.95;9.40;;;;;;;-1.96;100.00;99605.91;1771625;81;21832;-81
2021/12/29 03:27:43;;;;;;;15.03;9.20;;;;;;;-1.89;100.00;99599.11;1770640;81;21812;-82
2021/12/29 03:30:51;;;;;;;15.65;10.08;;;;;;;-1.82;100.00;99600.86;1770555;81;21311;-82
2021/12/29 03:33:57;;;;;;;16.05;9.53;;;;;;;-1.81;100.00;99595.38;1771494;81;21307;-81
2021/12/29 03:37:01;;;;;;;15.35;9.25;;;;;;;-1.81;100.00;99603.41;1771494;81;21282;-81
2021/12/29 03:40:06;;;;;;;16.15;10.32;;;;;;;-1.87;100.00;99594.99;1771666;81;21251;-82
2021/12/29 03:43:12;;;;;;;17.87;10.28;;;;;;;-1.93;100.00;99598.99;1771547;81;21294;-82
2021/12/29 03:46:17;;;;;;;20.70;10.23;;;;;;;-1.99;100.00;99607.95;1771500;81;21323;-81
2021/12/29 03:49:22;;;;;;;17.25;9.73;;;;;;;-2.02;100.00;99609.05;1771694;81;21259;-81
2021/12/29 03:52:27;;;;;;;16.67;9.93;;;;;;;-2.05;100.00;99615.97;1771690;81;21824;-82
2021/12/29 03:55:32;;;;;;;19.42;11.28;;;;;;;-2.05;100.00;99615.97;1771715;81;21252;-81
2021/12/29 03:58:36;;;;;;;19.62;10.95;;;;;;;-2.11;100.00;99615.95;1771644;81;21188;-82
2021/12/29 04:01:42;;;;;;;17.02;11.03;;;;;;;-2.09;100.00;99619.35;1771672;81;21817;-82
2021/12/29 04:04:48;;;;;;;14.95;9.48;;;;;;;-2.14;100.00;99622.00;1771637;81;21133;-81
2021/12/29 04:07:54;;;;;;;17.25;10.32;;;;;;;-2.23;100.00;99618.66;1771603;81;21303;-81
2021/12/29 04:10:58;;;;;;;14.73;9.15;;;;;;;-2.24;100.00;99630.34;1771714;81;21125;-82
2021/12/29 04:14:04;;;;;;;19.50;10.28;;;;;;;-2.22;100.00;99624.38;1771662;81;21330;-81
2021/12/29 04:17:12;;;;;;;14.03;9.38;;;;;;;-2.26;100.00;99627.77;1771484;81;21802;-81
2021/12/29 04:23:52;;;;;;;14.50;8.50;;;;;;;-2.33;100.00;99639.91;1771683;81;21351;-82
2021/12/29 04:26:59;;;;;;;13.53;7.65;;;;;;;-2.40;100.00;99638.17;1771726;81;21726;-81
2021/12/29 04:30:04;;;;;;;16.15;9.83;;;;;;;-2.42;100.00;99634.72;1771671;81;21263;-81
2021/12/29 04:33:09;;;;;;;23.67;10.43;;;;;;;-2.55;100.00;99640.58;1771621;81;21184;-81
2021/12/29 04:36:13;;;;;;;19.55;10.20;;;;;;;-2.68;100.00;99637.94;1771687;81;21148;-82
2021/12/29 04:39:20;;;;;;;20.35;10.58;;;;;;;-2.77;100.00;99645.77;1771228;79;21197;-82
2021/12/29 04:42:24;;;;;;;19.02;10.05;;;;;;;-2.92;100.00;99651.20;1766520;81;21188;-81
2021/12/29 04:45:31;;;;;;;17.27;8.85;;;;;;;-2.96;100.00;99648.39;1766752;81;21149;-81
2021/12/29 04:48:38;;;;;;;18.57;9.08;;;;;;;-2.99;100.00;99655.28;1765371;81;21181;-81
2021/12/29 04:51:51;;;;;;;17.02;10.18;;;;;;;-3.01;100.00;99665.25;1766792;81;21181;-82
2021/12/29 04:54:51;;;;;;;18.05;9.43;;;;;;;-3.02;100.00;99669.35;1766651;81;21295;-82
2021/12/29 04:57:58;;;;;;;13.60;8.20;;;;;;;-3.06;100.00;99659.33;1766868;81;21160;-81
2021/12/29 05:01:03;;;;;;;12.23;8.60;;;;;;;-3.08;100.00;99663.95;1766857;81;21802;-81
2021/12/29 05:04:09;;;;;;;12.30;7.58;;;;;;;-3.01;100.00;99667.04;1766960;81;21192;-81
2021/12/29 05:10:37;;;;;;;11.75;7.62;;;;;;;-2.99;100.00;99675.36;1766855;81;21153;-81
2021/12/29 05:13:45;;;;;;;12.20;7.40;;;;;;;-2.98;100.00;99669.03;1766859;81;21196;-82
2021/12/29 05:16:51;;;;;;;12.78;7.53;;;;;;;-3.02;100.00;99668.02;1765708;81;21172;-81
2021/12/29 05:19:56;;;;;;;10.48;6.85;;;;;;;-3.11;100.00;99680.20;1766816;81;21160;-81
2021/12/29 05:23:03;;;;;;;8.80;5.87;;;;;;;-3.25;100.00;99676.27;1766804;81;21180;-81
2021/12/29 05:26:10;;;;;;;13.88;8.33;;;;;;;-3.38;100.00;99678.45;1766864;81;21192;-81
2021/12/29 05:29:16;;;;;;;14.43;8.43;;;;;;;-3.39;100.00;99672.74;1766749;81;21331;-81
2021/12/29 05:32:21;;;;;;;10.68;6.45;;;;;;;-3.37;100.00;99683.33;1766037;81;21720;-81
2021/12/29 05:35:26;;;;;;;11.35;7.95;;;;;;;-3.35;100.00;99682.24;1766794;81;21848;-82
2021/12/29 05:38:25;;;;;;;12.05;6.83;;;;;;;-3.36;100.00;99686.37;1765690;81;21188;-81
2021/12/29 05:41:27;;;;;;;13.05;7.80;;;;;;;-3.35;100.00;99694.77;1766633;81;21291;-81
2021/12/29 05:44:31;;;;;;;13.68;8.48;;;;;;;-3.40;100.00;99695.06;1771358;81;21264;-81
2021/12/29 05:47:36;;;;;;;9.48;6.35;;;;;;;-3.44;100.00;99690.88;1771113;81;21263;-81
2021/12/29 05:50:42;;;;;;;13.85;8.33;;;;;;;-3.42;100.00;99694.81;1771779;81;21129;-82
2021/12/29 05:53:48;;;;;;;10.95;7.00;;;;;;;-3.47;100.00;99693.78;1771674;81;21911;-81
2021/12/29 05:56:52;;;;;;;12.88;7.15;;;;;;;-3.50;100.00;99697.98;1771571;81;21616;-81
2021/12/29 05:59:58;;;;;;;11.45;6.70;;;;;;;-3.53;100.00;99695.51;1772183;81;21279;-80
2021/12/29 06:03:03;;;;;;;9.70;5.85;;;;;;;-3.56;100.00;99701.08;1772078;81;21314;-80
2021/12/29 06:06:10;;;;;;;12.43;6.78;;;;;;;-3.61;100.00;99710.73;1772216;81;21268;-79
2021/12/29 06:09:14;;;;;;;10.85;6.53;;;;;;;-3.62;100.00;99713.04;1757363;81;21290;-81
2021/12/29 06:12:22;;;;;;;18.20;5.90;;;;;;;-3.63;100.00;99711.78;1771443;81;21180;-81
2021/12/29 06:15:30;;;;;;;11.20;6.15;;;;;;;-3.63;100.00;99719.80;1771778;81;21786;-81
2021/12/29 06:18:38;;;;;;;11.90;7.08;;;;;;;-3.62;100.00;99730.42;1771454;81;21172;-81
2021/12/29 06:21:45;;;;;;;12.40;7.25;;;;;;;-3.65;100.00;99733.77;1768041;79;21158;-81
2021/12/29 06:24:52;;;;;;;15.48;8.08;;;;;;;-3.68;100.00;99737.96;1696746;84;21866;-81
2021/12/29 06:27:57;;;;;;;11.90;6.85;;;;;;;-3.66;100.00;99738.73;1699675;83;21946;-82
2021/12/29 06:31:04;;;;;;;15.45;6.90;;;;;;;-3.75;100.00;99738.00;1702019;84;21336;-82
2021/12/29 06:34:11;;;;;;;10.03;6.35;;;;;;;-3.76;100.00;99747.84;1717706;83;21332;-81
2021/12/29 06:37:17;;;;;;;8.58;5.83;;;;;;;-3.80;100.00;99742.78;1732352;81;21209;-81
2021/12/29 06:44:25;;;;;;;10.90;7.22;;;;;;;-3.88;100.00;99741.45;1696201;84;21137;-81
2021/12/29 06:47:30;;;;;;;11.22;7.15;;;;;;;-3.92;100.00;99735.92;1723311;83;21891;-81
2021/12/29 06:50:35;;;;;;;9.78;6.80;;;;;;;-3.95;100.00;99741.48;1707444;84;21312;-81
2021/12/29 06:53:39;;;;;;;10.63;6.42;;;;;;;-3.94;100.00;99748.53;1741294;81;21811;-81
2021/12/29 06:56:47;;;;;;;8.88;5.97;;;;;;;-3.92;100.00;99750.62;1756335;81;21285;-82
2021/12/29 06:59:52;;;;;;;11.63;6.90;;;;;;;-3.91;100.00;99758.15;1734507;82;21308;-81
2021/12/29 07:02:58;;;;;;;10.50;5.97;;;;;;;-3.90;100.00;99760.75;1734518;81;21193;-81
2021/12/29 07:06:04;;;;;;;11.33;6.78;;;;;;;-3.91;100.00;99761.67;1734711;82;21873;-81
2021/12/29 07:09:09;;;;;;;11.25;7.37;;;;;;;-3.93;100.00;99754.25;1734515;82;21340;-81
2021/12/29 07:12:19;;;;;;;12.05;6.72;;;;;;;-3.91;100.00;99761.67;1734284;82;21798;-81
2021/12/29 07:15:25;;;;;;;10.18;7.25;;;;;;;-3.86;100.00;99763.61;1734450;82;21372;-81
2021/12/29 07:18:30;;;;;;;12.45;6.40;;;;;;;-3.83;100.00;99768.36;1734106;82;21320;-81
2021/12/29 07:21:38;;;;;;;12.35;7.90;;;;;;;-3.80;100.00;99759.68;1734081;82;21170;-81
2021/12/29 07:24:43;;;;;;;10.48;6.47;;;;;;;-3.77;100.00;99766.14;1701452;82;21822;-81
2021/12/29 07:27:48;;;;;;;9.25;6.40;;;;;;;-3.71;100.00;99768.44;1701111;84;22027;-81
2021/12/29 07:30:57;;;;;;;8.40;6.42;;;;;;;-3.69;100.00;99775.02;1701317;84;21886;-81
2021/12/29 07:34:02;;;;;;;10.13;6.83;;;;;;;-3.75;100.00;99776.27;1701239;84;21308;-81
2021/12/29 07:37:07;;;;;;;10.35;7.05;;;;;;;-3.78;100.00;99780.95;1701291;84;21193;-81
2021/12/29 07:40:14;;;;;;;10.90;7.45;;;;;;;-3.76;100.00;99776.38;1701399;84;21351;-81
2021/12/29 07:43:11;;;;;;;11.40;7.67;;;;;;;-3.66;100.00;99774.83;1701053;84;21905;-81
2021/12/29 07:46:17;;;;;;;12.20;8.18;;;;;;;-3.50;100.00;99776.86;1699816;83;21193;-81
2021/12/29 07:49:20;;;;;;;10.15;7.17;;;;;;;-3.33;100.00;99781.12;1702703;82;21316;-81
2021/12/29 07:52:25;;;;;;;10.55;6.92;;;;;;;-3.12;100.00;99785.51;1733787;82;21817;-81
2021/12/29 07:55:31;;;;;;;12.85;8.13;;;;;;;-2.95;100.00;99790.59;1717641;82;21347;-81
2021/12/29 07:58:36;;;;;;;12.73;7.78;;;;;;;-2.83;100.00;99787.07;1714991;82;21293;-80
2021/12/29 08:01:41;;;;;;;8.20;6.33;;;;;;;-2.75;100.00;99783.03;1733983;82;21268;-81
2021/12/29 08:04:48;;;;;;;13.10;8.00;;;;;;;-2.67;100.00;99788.24;1703133;82;21249;-81
2021/12/29 08:07:56;;;;;;;12.15;6.85;;;;;;;-2.51;100.00;99790.70;1736341;81;21269;-81
2021/12/29 08:11:03;;;;;;;12.53;7.55;;;;;;;-2.34;100.00;99790.41;1749265;82;21328;-80
2021/12/29 08:14:08;;;;;;;13.65;7.80;;;;;;;-2.17;100.00;99782.98;1722573;83;21331;-80
2021/12/29 08:17:13;;;;;;;12.50;7.80;;;;;;;-2.06;100.00;99785.30;1741065;82;21252;-80
2021/12/29 08:20:19;;;;;;;10.50;6.80;;;;;;;-1.93;100.00;99788.42;1736332;81;21723;-80
2021/12/29 08:23:25;;;;;;;11.73;7.53;;;;;;;-1.85;100.00;99780.21;1729115;81;21181;-80
2021/12/29 08:26:30;;;;;;;13.53;7.33;;;;;;;-1.82;100.00;99785.85;1728300;81;21624;-80
2021/12/29 08:29:36;;;;;;;11.12;6.58;;;;;;;-1.80;100.00;99779.39;1713841;81;21824;-81
2021/12/29 08:32:42;;;;;;;11.70;7.42;;;;;;;-1.72;100.00;99777.51;1735943;81;21221;-81
2021/12/29 08:35:48;;;;;;;11.95;7.28;;;;;;;-1.70;100.00;99771.53;1746721;81;21307;-81
2021/12/29 08:38:54;;;;;;;14.63;8.50;;;;;;;-1.65;100.00;99772.05;1751992;81;21285;-81
2021/12/29 08:42:01;;;;;;;10.08;7.20;;;;;;;-1.58;100.00;99778.70;1756643;81;21340;-80
2021/12/29 08:45:05;;;;;;;13.15;7.72;;;;;;;-1.51;100.00;99766.17;1717434;83;21230;-81
2021/12/29 08:48:13;;;;;;;13.58;8.48;;;;;;;-1.48;100.00;99761.45;1693723;83;21361;-81
2021/12/29 08:51:22;;;;;;;15.75;8.15;;;;;;;-1.44;100.00;99760.25;1714939;82;21320;-81
2021/12/29 08:54:27;;;;;;;12.53;7.85;;;;;;;-1.43;100.00;99757.94;1713767;82;21288;-80
2021/12/29 08:57:32;;;;;;;12.33;8.10;;;;;;;-1.44;100.00;99765.62;1762125;81;21902;-81
2021/12/29 09:00:37;;;;;;;13.10;7.90;;;;;;;-1.44;100.00;99761.59;1689137;83;21289;-81
2021/12/29 09:11:41;;;;;;;12.70;7.50;;;;;;;-1.15;100.00;99766.61;1787041;79;22648;-80
2021/12/29 09:14:48;;;;;;;11.22;7.50;;;;;;;-1.13;100.00;99763.31;1769575;79;21142;-81
2021/12/29 09:17:54;;;;;;;14.80;8.90;;;;;;;-1.22;100.00;99754.61;1758158;81;21280;-80
2021/12/29 09:21:05;;;;;;;13.98;8.83;;;;;;;-1.24;100.00;99760.10;1797034;79;22206;-81
2021/12/29 09:24:07;;;;;;;14.10;8.43;;;;;;;-1.20;100.00;99765.61;1784420;80;21295;-80
2021/12/29 09:27:12;;;;;;;12.28;8.20;;;;;;;-1.19;100.00;99766.47;1688866;85;21588;-80
2021/12/29 09:30:18;;;;;;;16.05;9.73;;;;;;;-1.19;100.00;99775.86;1741951;81;21807;-81
2021/12/29 09:33:24;;;;;;;12.43;8.50;;;;;;;-1.14;100.00;99775.88;1772987;79;21698;-81
2021/12/29 09:36:29;;;;;;;13.85;9.08;;;;;;;-1.14;100.00;99772.34;1759447;81;21192;-80
2021/12/29 09:39:36;;;;;;;13.90;8.40;;;;;;;-1.39;100.00;99780.88;1746036;81;21170;-81
2021/12/29 09:42:42;;;;;;;12.05;8.73;;;;;;;-1.61;100.00;99778.91;1790804;79;21268;-80
2021/12/29 09:45:48;;;;;;;14.83;8.68;;;;;;;-1.83;100.00;99780.13;1769889;79;21778;-81
2021/12/29 09:48:53;;;;;;;12.30;8.08;;;;;;;-1.98;100.00;99776.69;1733741;82;21314;-80
2021/12/29 09:52:00;;;;;;;14.63;9.88;;;;;;;-1.98;100.00;99774.02;1740131;81;21300;-81
2021/12/29 09:55:07;;;;;;;14.18;10.95;;;;;;;-1.94;100.00;99771.48;1699803;84;21684;-81
2021/12/29 09:58:12;;;;;;;16.05;9.68;;;;;;;-1.78;100.00;99771.26;1671680;84;21261;-80
2021/12/29 10:01:18;;;;;;;15.53;10.10;;;;;;;-1.68;100.00;99766.94;1665294;85;21316;-81
2021/12/29 10:04:24;;;;;;;18.17;9.85;;;;;;;-1.61;100.00;99765.98;1676730;85;21281;-81
2021/12/29 10:07:30;;;;;;;13.45;9.10;;;;;;;-1.53;100.00;99771.66;1696623;84;21329;-80
2021/12/29 10:10:37;;;;;;;15.43;9.28;;;;;;;-1.48;100.00;99766.80;1697921;84;21918;-80
2021/12/29 10:13:45;;;;;;;13.88;8.83;;;;;;;-1.43;100.00;99763.30;1719261;83;21363;-81
2021/12/29 10:16:50;;;;;;;13.93;9.85;;;;;;;-1.45;100.00;99765.74;1727147;83;21241;-81
2021/12/29 10:19:56;;;;;;;14.25;9.30;;;;;;;-1.48;100.00;99762.78;1726888;82;21303;-80
2021/12/29 10:23:07;;;;;;;14.78;9.33;;;;;;;-1.52;100.00;99763.98;1759951;81;21315;-80
2021/12/29 10:26:25;;;;;;;14.58;8.25;;;;;;;-1.65;100.00;99774.73;1696801;83;21260;-80
2021/12/29 10:29:30;;;;;;;12.23;7.85;;;;;;;-1.80;100.00;99767.81;1750184;81;21259;-81
2021/12/29 10:32:35;;;;;;;17.90;8.75;;;;;;;-1.91;100.00;99762.38;1737617;82;21788;-80
2021/12/29 10:35:40;;;;;;;15.72;9.20;;;;;;;-2.10;100.00;99765.03;1758136;81;21251;-80
2021/12/29 10:38:45;;;;;;;12.45;8.20;;;;;;;-2.24;100.00;99771.86;1699704;84;21321;-81
2021/12/29 10:42:11;;;;;;;16.55;9.30;;;;;;;-2.37;100.00;99770.52;1690672;84;21312;-81
2021/12/29 10:45:18;;;;;;;16.37;10.25;;;;;;;-2.44;100.00;99767.91;1707326;84;21342;-80
2021/12/29 10:48:33;;;;;;;20.70;10.63;;;;;;;-2.48;100.00;99759.70;1773566;79;21174;-81
2021/12/29 10:51:47;;;;;;;15.88;9.65;;;;;;;-2.57;100.00;99757.67;1776111;80;21295;-81
2021/12/29 10:54:53;;;;;;;16.87;10.38;;;;;;;-2.64;100.00;99765.25;1758642;81;21692;-81
2021/12/29 10:58:20;;;;;;;16.37;9.35;;;;;;;-2.75;100.00;99770.50;1730897;81;21269;-81
2021/12/29 11:01:25;;;;;;;16.27;10.03;;;;;;;-2.74;100.00;99762.84;1765178;81;21333;-80
2021/12/29 11:04:30;;;;;;;19.00;11.03;;;;;;;-2.73;100.00;99770.38;1764984;81;21266;-80
2021/12/29 11:07:37;;;;;;;19.50;12.40;;;;;;;-2.75;100.00;99770.98;1765464;81;21301;-81
2021/12/29 11:10:43;;;;;;;26.87;15.80;;;;;;;-2.73;100.00;99777.08;1765416;81;21805;-81
2021/12/29 11:13:48;;;;;;;23.62;14.87;;;;;;;-2.64;100.00;99782.66;1773169;80;21288;-81
2021/12/29 11:16:56;;;;;;;24.92;16.60;;;;;;;-2.56;100.00;99783.48;1734912;82;21336;-81
2021/12/29 11:20:06;;;;;;;28.23;16.62;;;;;;;-2.60;100.00;99785.98;1734999;82;21643;-81
2021/12/29 11:23:21;;;;;;;26.68;16.75;;;;;;;-2.54;100.00;99776.66;1738098;81;21214;-80
2021/12/29 11:26:39;;;;;;;25.88;16.55;;;;;;;-2.38;100.00;99784.03;1753389;81;21170;-81
2021/12/29 11:29:57;;;;;;;25.23;17.05;;;;;;;-2.17;100.00;99782.98;1755311;81;21707;-80
2021/12/29 11:33:16;;;;;;;24.32;15.53;;;;;;;-2.00;100.00;99786.67;1755771;81;21159;-80
2021/12/29 11:36:27;;;;;;;27.32;17.48;;;;;;;-2.05;100.00;99792.85;1762977;81;21169;-81
2021/12/29 11:39:27;;;;;;;28.20;13.93;;;;;;;-2.12;100.00;99799.14;1759157;81;21147;-80
2021/12/29 11:42:32;;;;;;;21.52;12.18;;;;;;;-2.03;100.00;99797.61;1742651;81;21241;-80
2021/12/29 11:45:37;;;;;;;22.17;13.98;;;;;;;-1.94;100.00;99798.30;1761888;81;21143;-80
2021/12/29 11:48:44;;;;;;;25.45;15.28;;;;;;;-1.95;100.00;99801.09;1751323;81;21265;-80
2021/12/29 11:52:01;;;;;;;31.60;17.92;;;;;;;-1.96;100.00;99808.77;1726238;82;21173;-81
2021/12/29 11:55:21;;;;;;;29.57;18.07;;;;;;;-1.87;100.00;99819.69;1734760;82;21838;-80
2021/12/29 11:58:38;;;;;;;36.25;20.40;;;;;;;-1.80;100.00;99822.29;1764285;81;21298;-80
2021/12/29 12:01:46;;;;;;;36.88;22.45;;;;;;;-1.75;100.00;99826.47;1711870;82;21146;-80
2021/12/29 12:04:57;;;;;;;29.37;18.00;;;;;;;-1.72;100.00;99832.97;1697821;84;21741;-81
2021/12/29 12:08:04;;;;;;;22.17;13.55;;;;;;;-1.81;100.00;99831.31;1690851;83;21304;-81
2021/12/29 12:11:09;;;;;;;30.88;16.07;;;;;;;-1.97;100.00;99837.89;1711782;82;21154;-81
2021/12/29 12:14:34;;;;;;;28.90;18.17;;;;;;;-2.16;100.00;99835.64;1728745;81;21756;-80
2021/12/29 12:17:39;;;;;;;27.93;17.40;;;;;;;-2.27;100.00;99839.53;1764718;81;21283;-81
2021/12/29 12:20:52;;;;;;;40.40;22.13;;;;;;;-2.34;100.00;99843.98;1752432;81;21722;-81
2021/12/29 12:24:00;;;;;;;41.00;22.58;;;;;;;-2.41;100.00;99836.46;1766467;81;21232;-80
2021/12/29 12:27:15;;;;;;;40.05;22.30;;;;;;;-2.48;100.00;99837.38;1762498;81;21300;-80
2021/12/29 12:30:33;;;;;;;39.35;21.70;;;;;;;-2.52;100.00;99843.05;1754843;81;21595;-81
2021/12/29 12:33:39;;;;;;;36.25;21.12;;;;;;;-2.63;100.00;99850.00;1728730;82;21212;-81
2021/12/29 12:36:44;;;;;;;36.10;20.97;;;;;;;-2.65;100.00;99860.42;1704378;84;21779;-81
2021/12/29 12:40:03;;;;;;;31.48;18.20;;;;;;;-2.58;100.00;99860.39;1748821;81;21206;-80
2021/12/29 12:43:21;;;;;;;30.35;18.23;;;;;;;-2.53;100.00;99860.94;1768390;81;21240;-81
2021/12/29 12:46:45;;;;;;;34.40;18.50;;;;;;;-2.59;100.00;99859.99;1763404;81;21280;-81
2021/12/29 12:49:56;;;;;;;32.08;18.10;;;;;;;-2.65;100.00;99871.98;1762752;79;21304;-80
2021/12/29 12:53:02;;;;;;;38.30;20.60;;;;;;;-2.73;100.00;99877.47;1799141;79;21340;-80
2021/12/29 12:56:08;;;;;;;35.03;20.27;;;;;;;-2.81;100.00;99882.50;1800160;79;21244;-80
2021/12/29 12:59:18;;;;;;;38.53;20.82;;;;;;;-2.79;100.00;99880.56;1762001;80;21327;-80
2021/12/29 13:02:28;;;;;;;35.40;21.25;;;;;;;-2.70;100.00;99880.80;1761233;81;21244;-81
2021/12/29 13:05:44;;;;;;;42.38;22.60;;;;;;;-2.72;100.00;99883.23;1757557;81;21182;-81
2021/12/29 13:08:53;;;;;;;33.13;20.52;;;;;;;-2.72;100.00;99883.23;1752380;81;21237;-80
2021/12/29 13:12:02;;;;;;;26.00;15.17;;;;;;;-2.75;100.00;99889.63;1759798;81;22202;-81
2021/12/29 13:15:10;;;;;;;32.10;18.77;;;;;;;-2.78;100.00;99891.16;1754214;81;21339;-81
2021/12/29 13:18:18;;;;;;;34.88;19.32;;;;;;;-2.88;100.00;99898.94;1768632;79;21141;-81
2021/12/29 13:21:27;;;;;;;41.95;20.23;;;;;;;-2.88;100.00;99897.60;1745047;81;21248;-81
2021/12/29 13:24:33;;;;;;;37.38;19.77;;;;;;;-2.92;100.00;99890.73;1775516;79;21456;-81
2021/12/29 13:27:38;;;;;;;38.55;20.02;;;;;;;-2.93;100.00;99901.55;1762023;80;21304;-81
2021/12/29 13:30:55;;;;;;;32.75;20.43;;;;;;;-2.93;100.00;99905.08;1770599;81;21185;-81
2021/12/29 13:34:02;;;;;;;45.08;21.87;;;;;;;-2.87;100.00;99902.02;1770311;79;21272;-81
2021/12/29 13:37:17;;;;;;;31.87;18.75;;;;;;;-2.83;100.00;99908.86;1770347;81;21315;-81
2021/12/29 13:40:22;;;;;;;31.90;17.98;;;;;;;-2.84;100.00;99921.88;1770083;81;21303;-81
2021/12/29 13:43:31;;;;;;;30.52;18.35;;;;;;;-2.91;100.00;99923.25;1763588;79;21850;-81
2021/12/29 13:46:48;;;;;;;28.75;17.02;;;;;;;-3.05;100.00;99923.78;1753760;82;21307;-81
2021/12/29 13:49:59;;;;;;;28.73;16.37;;;;;;;-3.16;100.00;99923.97;1753785;82;21699;-81
2021/12/29 13:53:15;;;;;;;26.90;15.75;;;;;;;-3.20;100.00;99927.82;1762942;81;21311;-81
2021/12/29 13:56:24;;;;;;;28.67;15.10;;;;;;;-3.17;100.00;99923.59;1745009;81;21257;-81
2021/12/29 13:59:31;;;;;;;23.70;14.45;;;;;;;-3.08;100.00;99923.48;1761694;81;21320;-81
2021/12/29 14:02:37;;;;;;;26.00;14.65;;;;;;;-3.11;100.00;99925.01;1761896;81;21393;-82
2021/12/29 14:05:54;;;;;;;22.00;14.05;;;;;;;-3.14;100.00;99930.58;1787932;79;21248;-81
2021/12/29 14:09:00;;;;;;;20.35;12.98;;;;;;;-3.16;100.00;99931.14;1794282;79;21252;-81
2021/12/29 14:12:22;;;;;;;25.12;13.53;;;;;;;-3.13;100.00;99942.98;1771063;81;21229;-81
2021/12/29 14:15:29;;;;;;;19.10;11.90;;;;;;;-3.15;100.00;99941.76;1770657;81;21284;-81
2021/12/29 14:18:42;;;;;;;23.12;13.38;;;;;;;-3.07;100.00;99954.63;1771306;81;21763;-81
2021/12/29 14:21:46;;;;;;;21.97;13.93;;;;;;;-3.10;100.00;99945.48;1734089;82;21173;-81
2021/12/29 14:24:52;;;;;;;21.97;13.93;;;;;;;-3.06;100.00;99946.97;1771514;79;21137;-81
2021/12/29 14:27:58;;;;;;;20.57;13.22;;;;;;;-3.01;100.00;99953.37;1771947;79;21201;-82
2021/12/29 14:31:10;;;;;;;22.60;13.13;;;;;;;-2.98;100.00;99956.71;1771658;81;21272;-82
2021/12/29 14:34:16;;;;;;;19.77;12.60;;;;;;;-2.93;100.00;99958.61;1771775;81;21264;-81
2021/12/29 14:37:25;;;;;;;19.62;12.53;;;;;;;-2.95;100.00;99953.84;1734385;82;21888;-81